sensor_id;sensor_type;location;lat;lon;timestamp;P1;durP1;ratioP1;P2;durP2;ratioP2
5730;SDS011;2890;51.950;7.668;2022-10-24T00:01:01;8.27;;;3.13;;
5730;SDS011;2890;51.950;7.668;2022-10-24T00:03:28;6.03;;;3.17;;
5730;SDS011;2890;51.950;7.668;2022-10-24T00:05:55;6.37;;;3.40;;
5730;SDS011;2890;51.950;7.668;2022-10-24T00:08:22;6.15;;;3.20;;
5730;SDS011;2890;51.950;7.668;2022-10-24T00:10:49;7.37;;;3.23;;
5730;SDS011;2890;51.950;7.668;2022-10-24T00:13:18;8.33;;;3.43;;
5730;SDS011;2890;51.950;7.668;2022-10-24T00:15:45;9.38;;;3.88;;
5730;SDS011;2890;51.950;7.668;2022-10-24T00:18:13;10.47;;;3.83;;
5730;SDS011;2890;51.950;7.668;2022-10-24T00:20:40;7.73;;;3.93;;
5730;SDS011;2890;51.950;7.668;2022-10-24T00:23:08;7.10;;;3.95;;
5730;SDS011;2890;51.950;7.668;2022-10-24T00:25:36;5.97;;;3.40;;
5730;SDS011;2890;51.950;7.668;2022-10-24T00:28:03;7.72;;;3.75;;
5730;SDS011;2890;51.950;7.668;2022-10-24T00:30:31;7.93;;;3.85;;
5730;SDS011;2890;51.950;7.668;2022-10-24T00:32:58;8.55;;;3.55;;
5730;SDS011;2890;51.950;7.668;2022-10-24T00:35:26;9.13;;;3.63;;
5730;SDS011;2890;51.950;7.668;2022-10-24T00:37:53;10.95;;;3.67;;
5730;SDS011;2890;51.950;7.668;2022-10-24T00:40:20;7.70;;;3.80;;
5730;SDS011;2890;51.950;7.668;2022-10-24T00:42:47;7.93;;;3.53;;
5730;SDS011;2890;51.950;7.668;2022-10-24T00:45:33;9.85;;;3.47;;
5730;SDS011;2890;51.950;7.668;2022-10-24T00:48:07;6.75;;;3.53;;
5730;SDS011;2890;51.950;7.668;2022-10-24T00:50:35;9.88;;;3.75;;
5730;SDS011;2890;51.950;7.668;2022-10-24T00:53:02;8.35;;;3.33;;
5730;SDS011;2890;51.950;7.668;2022-10-24T00:55:30;10.55;;;3.25;;
5730;SDS011;2890;51.950;7.668;2022-10-24T00:57:57;9.40;;;3.60;;
5730;SDS011;2890;51.950;7.668;2022-10-24T01:00:26;9.53;;;3.37;;
5730;SDS011;2890;51.950;7.668;2022-10-24T01:02:55;6.63;;;2.83;;
5730;SDS011;2890;51.950;7.668;2022-10-24T01:05:23;9.43;;;3.88;;
5730;SDS011;2890;51.950;7.668;2022-10-24T01:07:54;9.67;;;3.50;;
5730;SDS011;2890;51.950;7.668;2022-10-24T01:10:29;8.83;;;4.53;;
5730;SDS011;2890;51.950;7.668;2022-10-24T01:13:01;9.18;;;3.60;;
5730;SDS011;2890;51.950;7.668;2022-10-24T01:15:35;8.55;;;3.35;;
5730;SDS011;2890;51.950;7.668;2022-10-24T01:18:07;12.03;;;4.10;;
5730;SDS011;2890;51.950;7.668;2022-10-24T01:20:42;10.07;;;3.80;;
5730;SDS011;2890;51.950;7.668;2022-10-24T01:23:14;11.07;;;3.97;;
5730;SDS011;2890;51.950;7.668;2022-10-24T01:25:51;9.38;;;4.25;;
5730;SDS011;2890;51.950;7.668;2022-10-24T01:28:26;10.48;;;4.47;;
5730;SDS011;2890;51.950;7.668;2022-10-24T01:30:59;8.40;;;3.15;;
5730;SDS011;2890;51.950;7.668;2022-10-24T01:33:29;5.57;;;3.70;;
5730;SDS011;2890;51.950;7.668;2022-10-24T01:35:58;6.90;;;3.50;;
5730;SDS011;2890;51.950;7.668;2022-10-24T01:38:27;6.78;;;3.58;;
5730;SDS011;2890;51.950;7.668;2022-10-24T01:40:57;13.97;;;3.63;;
5730;SDS011;2890;51.950;7.668;2022-10-24T01:43:27;7.47;;;3.40;;
5730;SDS011;2890;51.950;7.668;2022-10-24T01:45:57;10.65;;;4.13;;
5730;SDS011;2890;51.950;7.668;2022-10-24T01:48:27;6.63;;;3.33;;
5730;SDS011;2890;51.950;7.668;2022-10-24T01:50:54;8.55;;;3.38;;
5730;SDS011;2890;51.950;7.668;2022-10-24T01:53:23;8.15;;;3.30;;
5730;SDS011;2890;51.950;7.668;2022-10-24T01:55:52;11.77;;;4.07;;
5730;SDS011;2890;51.950;7.668;2022-10-24T01:58:20;8.47;;;3.10;;
5730;SDS011;2890;51.950;7.668;2022-10-24T02:00:47;8.37;;;3.77;;
5730;SDS011;2890;51.950;7.668;2022-10-24T02:03:20;8.80;;;3.65;;
5730;SDS011;2890;51.950;7.668;2022-10-24T02:05:49;6.95;;;3.92;;
5730;SDS011;2890;51.950;7.668;2022-10-24T02:08:18;9.10;;;4.07;;
5730;SDS011;2890;51.950;7.668;2022-10-24T02:10:46;5.30;;;3.10;;
5730;SDS011;2890;51.950;7.668;2022-10-24T02:13:15;11.90;;;3.90;;
5730;SDS011;2890;51.950;7.668;2022-10-24T02:15:46;7.97;;;3.50;;
5730;SDS011;2890;51.950;7.668;2022-10-24T02:18:15;12.38;;;4.97;;
5730;SDS011;2890;51.950;7.668;2022-10-24T02:20:45;12.02;;;3.63;;
5730;SDS011;2890;51.950;7.668;2022-10-24T02:23:15;10.05;;;3.65;;
5730;SDS011;2890;51.950;7.668;2022-10-24T02:25:44;8.75;;;3.15;;
5730;SDS011;2890;51.950;7.668;2022-10-24T02:28:14;9.05;;;3.30;;
5730;SDS011;2890;51.950;7.668;2022-10-24T02:30:43;11.57;;;3.47;;
5730;SDS011;2890;51.950;7.668;2022-10-24T02:33:12;8.13;;;3.72;;
5730;SDS011;2890;51.950;7.668;2022-10-24T02:35:40;5.57;;;3.45;;
5730;SDS011;2890;51.950;7.668;2022-10-24T02:38:10;10.05;;;4.30;;
5730;SDS011;2890;51.950;7.668;2022-10-24T02:40:38;10.43;;;3.67;;
5730;SDS011;2890;51.950;7.668;2022-10-24T02:43:06;5.27;;;3.30;;
5730;SDS011;2890;51.950;7.668;2022-10-24T02:45:34;6.03;;;3.53;;
5730;SDS011;2890;51.950;7.668;2022-10-24T02:48:03;10.10;;;3.47;;
5730;SDS011;2890;51.950;7.668;2022-10-24T02:50:31;9.10;;;3.70;;
5730;SDS011;2890;51.950;7.668;2022-10-24T02:52:58;8.77;;;3.42;;
5730;SDS011;2890;51.950;7.668;2022-10-24T02:55:26;11.80;;;3.43;;
5730;SDS011;2890;51.950;7.668;2022-10-24T02:57:54;9.13;;;3.37;;
5730;SDS011;2890;51.950;7.668;2022-10-24T03:00:21;5.88;;;2.92;;
5730;SDS011;2890;51.950;7.668;2022-10-24T03:02:48;8.10;;;3.13;;
5730;SDS011;2890;51.950;7.668;2022-10-24T03:05:15;12.05;;;3.90;;
5730;SDS011;2890;51.950;7.668;2022-10-24T03:07:42;7.75;;;2.95;;
5730;SDS011;2890;51.950;7.668;2022-10-24T03:10:09;4.85;;;3.00;;
5730;SDS011;2890;51.950;7.668;2022-10-24T03:12:38;11.18;;;3.40;;
5730;SDS011;2890;51.950;7.668;2022-10-24T03:15:05;8.48;;;3.45;;
5730;SDS011;2890;51.950;7.668;2022-10-24T03:17:32;10.30;;;3.38;;
5730;SDS011;2890;51.950;7.668;2022-10-24T03:19:59;9.47;;;3.00;;
5730;SDS011;2890;51.950;7.668;2022-10-24T03:22:26;11.97;;;3.57;;
5730;SDS011;2890;51.950;7.668;2022-10-24T03:24:53;9.67;;;3.27;;
5730;SDS011;2890;51.950;7.668;2022-10-24T03:27:21;11.57;;;2.87;;
5730;SDS011;2890;51.950;7.668;2022-10-24T03:29:49;6.93;;;3.23;;
5730;SDS011;2890;51.950;7.668;2022-10-24T03:32:16;5.18;;;2.63;;
5730;SDS011;2890;51.950;7.668;2022-10-24T03:34:43;6.30;;;2.90;;
5730;SDS011;2890;51.950;7.668;2022-10-24T03:37:10;8.07;;;3.80;;
5730;SDS011;2890;51.950;7.668;2022-10-24T03:39:37;7.23;;;2.70;;
5730;SDS011;2890;51.950;7.668;2022-10-24T03:42:05;6.87;;;2.83;;
5730;SDS011;2890;51.950;7.668;2022-10-24T03:44:32;9.63;;;2.95;;
5730;SDS011;2890;51.950;7.668;2022-10-24T03:47:00;8.00;;;3.33;;
5730;SDS011;2890;51.950;7.668;2022-10-24T03:49:27;8.93;;;3.15;;
5730;SDS011;2890;51.950;7.668;2022-10-24T03:51:54;4.35;;;2.83;;
5730;SDS011;2890;51.950;7.668;2022-10-24T03:54:21;9.77;;;3.30;;
5730;SDS011;2890;51.950;7.668;2022-10-24T03:56:48;12.37;;;2.70;;
5730;SDS011;2890;51.950;7.668;2022-10-24T03:59:16;6.40;;;2.95;;
5730;SDS011;2890;51.950;7.668;2022-10-24T04:01:43;5.05;;;3.33;;
5730;SDS011;2890;51.950;7.668;2022-10-24T04:04:11;8.97;;;2.73;;
5730;SDS011;2890;51.950;7.668;2022-10-24T04:06:38;6.53;;;2.80;;
5730;SDS011;2890;51.950;7.668;2022-10-24T04:09:06;7.63;;;2.55;;
5730;SDS011;2890;51.950;7.668;2022-10-24T04:11:33;14.15;;;2.97;;
5730;SDS011;2890;51.950;7.668;2022-10-24T04:14:00;4.82;;;2.38;;
5730;SDS011;2890;51.950;7.668;2022-10-24T04:16:27;10.07;;;3.75;;
5730;SDS011;2890;51.950;7.668;2022-10-24T04:18:58;7.20;;;2.63;;
5730;SDS011;2890;51.950;7.668;2022-10-24T04:21:26;4.95;;;2.90;;
5730;SDS011;2890;51.950;7.668;2022-10-24T04:23:53;5.67;;;2.40;;
5730;SDS011;2890;51.950;7.668;2022-10-24T04:26:20;6.20;;;2.47;;
5730;SDS011;2890;51.950;7.668;2022-10-24T04:28:47;5.17;;;2.50;;
5730;SDS011;2890;51.950;7.668;2022-10-24T04:31:15;4.55;;;2.40;;
5730;SDS011;2890;51.950;7.668;2022-10-24T04:33:42;5.50;;;2.13;;
5730;SDS011;2890;51.950;7.668;2022-10-24T04:36:09;11.57;;;2.83;;
5730;SDS011;2890;51.950;7.668;2022-10-24T04:38:38;5.87;;;2.17;;
5730;SDS011;2890;51.950;7.668;2022-10-24T04:41:05;7.25;;;2.60;;
5730;SDS011;2890;51.950;7.668;2022-10-24T04:43:32;5.67;;;2.43;;
5730;SDS011;2890;51.950;7.668;2022-10-24T04:45:59;5.22;;;2.15;;
5730;SDS011;2890;51.950;7.668;2022-10-24T04:48:26;4.70;;;2.58;;
5730;SDS011;2890;51.950;7.668;2022-10-24T04:50:53;6.35;;;2.45;;
5730;SDS011;2890;51.950;7.668;2022-10-24T04:53:21;11.32;;;3.63;;
5730;SDS011;2890;51.950;7.668;2022-10-24T04:55:49;7.87;;;2.80;;
5730;SDS011;2890;51.950;7.668;2022-10-24T04:58:16;5.93;;;2.60;;
5730;SDS011;2890;51.950;7.668;2022-10-24T05:00:44;6.05;;;2.33;;
5730;SDS011;2890;51.950;7.668;2022-10-24T05:03:13;3.37;;;2.33;;
5730;SDS011;2890;51.950;7.668;2022-10-24T05:05:40;4.90;;;2.40;;
5730;SDS011;2890;51.950;7.668;2022-10-24T05:08:07;8.32;;;2.72;;
5730;SDS011;2890;51.950;7.668;2022-10-24T05:10:35;8.40;;;2.93;;
5730;SDS011;2890;51.950;7.668;2022-10-24T05:13:03;4.18;;;2.20;;
5730;SDS011;2890;51.950;7.668;2022-10-24T05:15:30;4.40;;;2.20;;
5730;SDS011;2890;51.950;7.668;2022-10-24T05:17:57;6.30;;;2.53;;
5730;SDS011;2890;51.950;7.668;2022-10-24T05:20:25;4.53;;;2.23;;
5730;SDS011;2890;51.950;7.668;2022-10-24T05:22:52;4.90;;;2.00;;
5730;SDS011;2890;51.950;7.668;2022-10-24T05:25:19;6.70;;;2.63;;
5730;SDS011;2890;51.950;7.668;2022-10-24T05:27:46;4.53;;;2.03;;
5730;SDS011;2890;51.950;7.668;2022-10-24T05:30:15;7.93;;;2.80;;
5730;SDS011;2890;51.950;7.668;2022-10-24T05:32:42;6.97;;;2.25;;
5730;SDS011;2890;51.950;7.668;2022-10-24T05:35:10;8.07;;;2.70;;
5730;SDS011;2890;51.950;7.668;2022-10-24T05:37:37;6.43;;;2.10;;
5730;SDS011;2890;51.950;7.668;2022-10-24T05:40:05;4.57;;;2.28;;
5730;SDS011;2890;51.950;7.668;2022-10-24T05:42:32;4.70;;;2.28;;
5730;SDS011;2890;51.950;7.668;2022-10-24T05:44:59;4.93;;;2.00;;
5730;SDS011;2890;51.950;7.668;2022-10-24T05:47:27;3.85;;;2.60;;
5730;SDS011;2890;51.950;7.668;2022-10-24T05:49:55;9.07;;;2.38;;
5730;SDS011;2890;51.950;7.668;2022-10-24T05:52:22;7.82;;;2.33;;
5730;SDS011;2890;51.950;7.668;2022-10-24T05:54:49;5.33;;;2.20;;
5730;SDS011;2890;51.950;7.668;2022-10-24T05:57:16;9.33;;;2.43;;
5730;SDS011;2890;51.950;7.668;2022-10-24T05:59:43;7.63;;;3.13;;
5730;SDS011;2890;51.950;7.668;2022-10-24T06:02:11;6.80;;;2.53;;
5730;SDS011;2890;51.950;7.668;2022-10-24T06:04:43;5.60;;;2.20;;
5730;SDS011;2890;51.950;7.668;2022-10-24T06:07:11;8.90;;;2.28;;
5730;SDS011;2890;51.950;7.668;2022-10-24T06:09:38;3.67;;;1.90;;
5730;SDS011;2890;51.950;7.668;2022-10-24T06:12:05;9.05;;;2.80;;
5730;SDS011;2890;51.950;7.668;2022-10-24T06:14:34;7.15;;;2.20;;
5730;SDS011;2890;51.950;7.668;2022-10-24T06:17:01;7.43;;;2.38;;
5730;SDS011;2890;51.950;7.668;2022-10-24T06:19:29;2.38;;;1.90;;
5730;SDS011;2890;51.950;7.668;2022-10-24T06:21:57;3.10;;;1.80;;
5730;SDS011;2890;51.950;7.668;2022-10-24T06:24:24;4.82;;;2.50;;
5730;SDS011;2890;51.950;7.668;2022-10-24T06:26:52;7.45;;;2.20;;
5730;SDS011;2890;51.950;7.668;2022-10-24T06:29:19;6.13;;;2.00;;
5730;SDS011;2890;51.950;7.668;2022-10-24T06:31:46;8.05;;;2.17;;
5730;SDS011;2890;51.950;7.668;2022-10-24T06:34:13;5.13;;;1.85;;
5730;SDS011;2890;51.950;7.668;2022-10-24T06:36:40;5.63;;;2.05;;
5730;SDS011;2890;51.950;7.668;2022-10-24T06:39:09;5.60;;;1.83;;
5730;SDS011;2890;51.950;7.668;2022-10-24T06:41:36;5.78;;;2.00;;
5730;SDS011;2890;51.950;7.668;2022-10-24T06:44:03;6.35;;;2.15;;
5730;SDS011;2890;51.950;7.668;2022-10-24T06:46:30;5.00;;;2.30;;
5730;SDS011;2890;51.950;7.668;2022-10-24T06:48:57;7.90;;;2.38;;
5730;SDS011;2890;51.950;7.668;2022-10-24T06:51:25;5.30;;;2.10;;
5730;SDS011;2890;51.950;7.668;2022-10-24T06:53:52;6.47;;;2.03;;
5730;SDS011;2890;51.950;7.668;2022-10-24T06:56:20;5.57;;;2.28;;
5730;SDS011;2890;51.950;7.668;2022-10-24T06:58:47;3.80;;;1.92;;
5730;SDS011;2890;51.950;7.668;2022-10-24T07:01:15;6.35;;;2.13;;
5730;SDS011;2890;51.950;7.668;2022-10-24T07:03:42;4.70;;;2.40;;
5730;SDS011;2890;51.950;7.668;2022-10-24T07:06:10;5.07;;;2.20;;
5730;SDS011;2890;51.950;7.668;2022-10-24T07:08:40;7.28;;;2.30;;
5730;SDS011;2890;51.950;7.668;2022-10-24T07:11:08;6.38;;;2.30;;
5730;SDS011;2890;51.950;7.668;2022-10-24T07:13:36;4.85;;;2.20;;
5730;SDS011;2890;51.950;7.668;2022-10-24T07:16:03;5.75;;;2.38;;
5730;SDS011;2890;51.950;7.668;2022-10-24T07:18:31;7.82;;;2.45;;
5730;SDS011;2890;51.950;7.668;2022-10-24T07:21:00;3.50;;;2.00;;
5730;SDS011;2890;51.950;7.668;2022-10-24T07:23:27;5.15;;;2.47;;
5730;SDS011;2890;51.950;7.668;2022-10-24T07:25:54;5.00;;;1.90;;
5730;SDS011;2890;51.950;7.668;2022-10-24T07:28:21;4.60;;;1.90;;
5730;SDS011;2890;51.950;7.668;2022-10-24T07:30:49;3.90;;;1.90;;
5730;SDS011;2890;51.950;7.668;2022-10-24T07:33:16;4.47;;;2.00;;
5730;SDS011;2890;51.950;7.668;2022-10-24T07:35:43;6.22;;;2.30;;
5730;SDS011;2890;51.950;7.668;2022-10-24T07:38:10;5.43;;;1.77;;
5730;SDS011;2890;51.950;7.668;2022-10-24T07:40:37;11.50;;;2.85;;
5730;SDS011;2890;51.950;7.668;2022-10-24T07:43:04;8.25;;;2.03;;
5730;SDS011;2890;51.950;7.668;2022-10-24T07:45:31;4.35;;;1.70;;
5730;SDS011;2890;51.950;7.668;2022-10-24T07:48:00;3.85;;;1.63;;
5730;SDS011;2890;51.950;7.668;2022-10-24T07:50:29;4.53;;;1.90;;
5730;SDS011;2890;51.950;7.668;2022-10-24T07:52:56;5.50;;;2.10;;
5730;SDS011;2890;51.950;7.668;2022-10-24T07:55:24;3.03;;;1.80;;
5730;SDS011;2890;51.950;7.668;2022-10-24T07:57:51;4.45;;;1.77;;
5730;SDS011;2890;51.950;7.668;2022-10-24T08:00:18;2.15;;;1.40;;
5730;SDS011;2890;51.950;7.668;2022-10-24T08:02:45;4.32;;;1.67;;
5730;SDS011;2890;51.950;7.668;2022-10-24T08:05:13;3.85;;;1.95;;
5730;SDS011;2890;51.950;7.668;2022-10-24T08:07:40;5.25;;;1.73;;
5730;SDS011;2890;51.950;7.668;2022-10-24T08:10:10;4.68;;;1.45;;
5730;SDS011;2890;51.950;7.668;2022-10-24T08:12:37;3.58;;;1.33;;
5730;SDS011;2890;51.950;7.668;2022-10-24T08:15:04;7.78;;;1.60;;
5730;SDS011;2890;51.950;7.668;2022-10-24T08:17:32;3.92;;;1.60;;
5730;SDS011;2890;51.950;7.668;2022-10-24T08:20:00;7.85;;;1.73;;
5730;SDS011;2890;51.950;7.668;2022-10-24T08:22:28;3.47;;;1.80;;
5730;SDS011;2890;51.950;7.668;2022-10-24T08:24:57;5.28;;;1.65;;
5730;SDS011;2890;51.950;7.668;2022-10-24T08:27:24;6.82;;;2.67;;
5730;SDS011;2890;51.950;7.668;2022-10-24T08:29:51;2.30;;;1.70;;
5730;SDS011;2890;51.950;7.668;2022-10-24T08:32:19;6.20;;;1.60;;
5730;SDS011;2890;51.950;7.668;2022-10-24T08:34:46;5.05;;;1.50;;
5730;SDS011;2890;51.950;7.668;2022-10-24T08:37:13;3.83;;;1.52;;
5730;SDS011;2890;51.950;7.668;2022-10-24T08:39:41;4.00;;;2.08;;
5730;SDS011;2890;51.950;7.668;2022-10-24T08:42:10;3.55;;;1.63;;
5730;SDS011;2890;51.950;7.668;2022-10-24T08:44:39;7.63;;;1.70;;
5730;SDS011;2890;51.950;7.668;2022-10-24T08:47:07;3.92;;;2.00;;
5730;SDS011;2890;51.950;7.668;2022-10-24T08:49:40;5.28;;;1.88;;
5730;SDS011;2890;51.950;7.668;2022-10-24T08:52:11;3.65;;;1.52;;
5730;SDS011;2890;51.950;7.668;2022-10-24T08:54:44;5.10;;;1.88;;
5730;SDS011;2890;51.950;7.668;2022-10-24T08:57:19;4.95;;;1.80;;
5730;SDS011;2890;51.950;7.668;2022-10-24T08:59:48;4.97;;;1.95;;
5730;SDS011;2890;51.950;7.668;2022-10-24T09:02:17;3.50;;;1.67;;
5730;SDS011;2890;51.950;7.668;2022-10-24T09:04:45;4.70;;;1.70;;
5730;SDS011;2890;51.950;7.668;2022-10-24T09:07:15;5.43;;;1.88;;
5730;SDS011;2890;51.950;7.668;2022-10-24T09:09:46;3.50;;;1.85;;
5730;SDS011;2890;51.950;7.668;2022-10-24T09:12:14;3.08;;;1.73;;
5730;SDS011;2890;51.950;7.668;2022-10-24T09:14:43;4.70;;;2.17;;
5730;SDS011;2890;51.950;7.668;2022-10-24T09:17:11;6.60;;;1.95;;
5730;SDS011;2890;51.950;7.668;2022-10-24T09:19:40;4.70;;;1.67;;
5730;SDS011;2890;51.950;7.668;2022-10-24T09:22:10;4.85;;;2.08;;
5730;SDS011;2890;51.950;7.668;2022-10-24T09:24:38;7.07;;;2.05;;
5730;SDS011;2890;51.950;7.668;2022-10-24T09:27:10;4.75;;;1.75;;
5730;SDS011;2890;51.950;7.668;2022-10-24T09:29:40;9.02;;;1.98;;
5730;SDS011;2890;51.950;7.668;2022-10-24T09:32:12;4.50;;;1.45;;
5730;SDS011;2890;51.950;7.668;2022-10-24T09:34:40;3.67;;;1.42;;
5730;SDS011;2890;51.950;7.668;2022-10-24T09:37:07;6.47;;;2.10;;
5730;SDS011;2890;51.950;7.668;2022-10-24T09:39:55;4.45;;;1.92;;
5730;SDS011;2890;51.950;7.668;2022-10-24T09:42:31;4.78;;;1.60;;
5730;SDS011;2890;51.950;7.668;2022-10-24T09:44:58;4.20;;;1.60;;
5730;SDS011;2890;51.950;7.668;2022-10-24T09:47:27;2.75;;;1.73;;
5730;SDS011;2890;51.950;7.668;2022-10-24T09:49:54;6.85;;;1.60;;
5730;SDS011;2890;51.950;7.668;2022-10-24T09:52:22;7.07;;;1.75;;
5730;SDS011;2890;51.950;7.668;2022-10-24T09:55:02;4.82;;;2.05;;
5730;SDS011;2890;51.950;7.668;2022-10-24T09:57:37;7.15;;;2.40;;
5730;SDS011;2890;51.950;7.668;2022-10-24T10:00:05;5.80;;;1.88;;
5730;SDS011;2890;51.950;7.668;2022-10-24T10:02:38;7.30;;;1.45;;
5730;SDS011;2890;51.950;7.668;2022-10-24T10:05:10;7.00;;;2.10;;
5730;SDS011;2890;51.950;7.668;2022-10-24T10:07:40;5.75;;;1.85;;
5730;SDS011;2890;51.950;7.668;2022-10-24T10:10:21;4.50;;;1.70;;
5730;SDS011;2890;51.950;7.668;2022-10-24T10:12:55;5.03;;;1.80;;
5730;SDS011;2890;51.950;7.668;2022-10-24T10:15:24;8.18;;;2.45;;
5730;SDS011;2890;51.950;7.668;2022-10-24T10:17:53;5.57;;;2.00;;
5730;SDS011;2890;51.950;7.668;2022-10-24T10:20:22;4.57;;;1.80;;
5730;SDS011;2890;51.950;7.668;2022-10-24T10:22:49;3.10;;;1.88;;
5730;SDS011;2890;51.950;7.668;2022-10-24T10:25:26;4.32;;;1.90;;
5730;SDS011;2890;51.950;7.668;2022-10-24T10:27:55;3.85;;;1.80;;
5730;SDS011;2890;51.950;7.668;2022-10-24T10:30:23;5.45;;;1.88;;
5730;SDS011;2890;51.950;7.668;2022-10-24T10:32:54;5.43;;;1.85;;
5730;SDS011;2890;51.950;7.668;2022-10-24T10:35:23;7.80;;;2.17;;
5730;SDS011;2890;51.950;7.668;2022-10-24T10:37:53;8.15;;;2.05;;
5730;SDS011;2890;51.950;7.668;2022-10-24T10:40:24;6.57;;;1.95;;
5730;SDS011;2890;51.950;7.668;2022-10-24T10:42:56;5.50;;;1.98;;
5730;SDS011;2890;51.950;7.668;2022-10-24T10:45:32;4.35;;;1.75;;
5730;SDS011;2890;51.950;7.668;2022-10-24T10:48:02;5.60;;;1.88;;
5730;SDS011;2890;51.950;7.668;2022-10-24T10:50:34;6.22;;;2.38;;
5730;SDS011;2890;51.950;7.668;2022-10-24T10:53:04;4.43;;;1.65;;
5730;SDS011;2890;51.950;7.668;2022-10-24T10:55:34;5.57;;;1.90;;
5730;SDS011;2890;51.950;7.668;2022-10-24T10:58:08;3.47;;;1.40;;
5730;SDS011;2890;51.950;7.668;2022-10-24T11:00:42;5.15;;;1.95;;
5730;SDS011;2890;51.950;7.668;2022-10-24T11:03:25;6.00;;;1.83;;
5730;SDS011;2890;51.950;7.668;2022-10-24T11:06:00;5.53;;;2.00;;
5730;SDS011;2890;51.950;7.668;2022-10-24T11:08:35;5.88;;;1.60;;
5730;SDS011;2890;51.950;7.668;2022-10-24T11:11:05;4.68;;;1.83;;
5730;SDS011;2890;51.950;7.668;2022-10-24T11:13:37;7.75;;;2.22;;
5730;SDS011;2890;51.950;7.668;2022-10-24T11:16:09;7.03;;;1.88;;
5730;SDS011;2890;51.950;7.668;2022-10-24T11:18:37;5.70;;;2.53;;
5730;SDS011;2890;51.950;7.668;2022-10-24T11:21:06;6.47;;;2.30;;
5730;SDS011;2890;51.950;7.668;2022-10-24T11:23:34;6.68;;;2.17;;
5730;SDS011;2890;51.950;7.668;2022-10-24T11:26:04;6.85;;;2.28;;
5730;SDS011;2890;51.950;7.668;2022-10-24T11:28:35;7.85;;;2.05;;
5730;SDS011;2890;51.950;7.668;2022-10-24T11:31:06;4.13;;;1.85;;
5730;SDS011;2890;51.950;7.668;2022-10-24T11:33:39;6.95;;;2.65;;
5730;SDS011;2890;51.950;7.668;2022-10-24T11:36:09;8.95;;;2.30;;
5730;SDS011;2890;51.950;7.668;2022-10-24T11:38:39;9.65;;;2.50;;
5730;SDS011;2890;51.950;7.668;2022-10-24T11:41:15;7.90;;;2.00;;
5730;SDS011;2890;51.950;7.668;2022-10-24T11:43:44;5.97;;;2.17;;
5730;SDS011;2890;51.950;7.668;2022-10-24T11:46:13;8.57;;;2.50;;
5730;SDS011;2890;51.950;7.668;2022-10-24T11:48:43;4.72;;;2.10;;
5730;SDS011;2890;51.950;7.668;2022-10-24T11:51:15;7.15;;;2.40;;
5730;SDS011;2890;51.950;7.668;2022-10-24T11:53:46;4.55;;;2.53;;
5730;SDS011;2890;51.950;7.668;2022-10-24T11:56:16;3.22;;;1.85;;
5730;SDS011;2890;51.950;7.668;2022-10-24T11:58:48;9.30;;;2.00;;
5730;SDS011;2890;51.950;7.668;2022-10-24T12:01:33;5.10;;;2.85;;
5730;SDS011;2890;51.950;7.668;2022-10-24T12:04:10;6.28;;;2.22;;
5730;SDS011;2890;51.950;7.668;2022-10-24T12:06:44;6.43;;;2.10;;
5730;SDS011;2890;51.950;7.668;2022-10-24T12:09:20;6.97;;;2.08;;
5730;SDS011;2890;51.950;7.668;2022-10-24T12:11:55;6.53;;;2.75;;
5730;SDS011;2890;51.950;7.668;2022-10-24T12:14:29;5.93;;;2.22;;
5730;SDS011;2890;51.950;7.668;2022-10-24T12:17:05;7.50;;;2.40;;
5730;SDS011;2890;51.950;7.668;2022-10-24T12:19:37;7.85;;;2.83;;
5730;SDS011;2890;51.950;7.668;2022-10-24T12:22:05;4.35;;;3.00;;
5730;SDS011;2890;51.950;7.668;2022-10-24T12:24:33;7.00;;;2.13;;
5730;SDS011;2890;51.950;7.668;2022-10-24T12:27:03;4.97;;;2.38;;
5730;SDS011;2890;51.950;7.668;2022-10-24T12:29:31;6.45;;;3.13;;
5730;SDS011;2890;51.950;7.668;2022-10-24T12:31:59;7.80;;;2.67;;
5730;SDS011;2890;51.950;7.668;2022-10-24T12:34:56;7.55;;;2.50;;
5730;SDS011;2890;51.950;7.668;2022-10-24T12:37:34;8.10;;;2.28;;
5730;SDS011;2890;51.950;7.668;2022-10-24T12:45:33;6.35;;;2.53;;
5730;SDS011;2890;51.950;7.668;2022-10-24T12:48:13;8.60;;;2.95;;
5730;SDS011;2890;51.950;7.668;2022-10-24T12:50:56;3.67;;;1.75;;
5730;SDS011;2890;51.950;7.668;2022-10-24T12:56:12;7.03;;;2.35;;
5730;SDS011;2890;51.950;7.668;2022-10-24T12:58:40;5.53;;;2.03;;
5730;SDS011;2890;51.950;7.668;2022-10-24T13:01:09;7.70;;;2.53;;
5730;SDS011;2890;51.950;7.668;2022-10-24T13:06:21;7.95;;;3.03;;
5730;SDS011;2890;51.950;7.668;2022-10-24T13:08:54;5.82;;;2.35;;
5730;SDS011;2890;51.950;7.668;2022-10-24T13:11:27;6.85;;;2.55;;
5730;SDS011;2890;51.950;7.668;2022-10-24T13:14:01;4.93;;;2.05;;
5730;SDS011;2890;51.950;7.668;2022-10-24T13:16:35;5.40;;;2.33;;
5730;SDS011;2890;51.950;7.668;2022-10-24T13:19:08;6.00;;;2.30;;
5730;SDS011;2890;51.950;7.668;2022-10-24T13:21:43;9.15;;;2.33;;
5730;SDS011;2890;51.950;7.668;2022-10-24T13:24:20;9.02;;;2.60;;
5730;SDS011;2890;51.950;7.668;2022-10-24T13:26:48;7.32;;;2.38;;
5730;SDS011;2890;51.950;7.668;2022-10-24T13:34:41;9.27;;;2.75;;
5730;SDS011;2890;51.950;7.668;2022-10-24T13:37:15;7.95;;;2.88;;
5730;SDS011;2890;51.950;7.668;2022-10-24T13:39:47;5.72;;;2.40;;
5730;SDS011;2890;51.950;7.668;2022-10-24T13:42:21;5.63;;;2.35;;
5730;SDS011;2890;51.950;7.668;2022-10-24T13:44:49;5.93;;;2.20;;
5730;SDS011;2890;51.950;7.668;2022-10-24T13:47:18;7.85;;;2.67;;
5730;SDS011;2890;51.950;7.668;2022-10-24T13:49:50;4.97;;;2.30;;
5730;SDS011;2890;51.950;7.668;2022-10-24T13:52:21;5.53;;;2.08;;
5730;SDS011;2890;51.950;7.668;2022-10-24T13:54:51;7.43;;;2.35;;
5730;SDS011;2890;51.950;7.668;2022-10-24T13:57:28;5.97;;;2.20;;
5730;SDS011;2890;51.950;7.668;2022-10-24T13:59:58;8.98;;;2.70;;
5730;SDS011;2890;51.950;7.668;2022-10-24T14:02:27;7.82;;;2.38;;
5730;SDS011;2890;51.950;7.668;2022-10-24T14:04:55;5.63;;;2.60;;
5730;SDS011;2890;51.950;7.668;2022-10-24T14:07:25;7.90;;;2.10;;
5730;SDS011;2890;51.950;7.668;2022-10-24T14:09:53;6.70;;;2.80;;
5730;SDS011;2890;51.950;7.668;2022-10-24T14:12:22;5.43;;;2.53;;
5730;SDS011;2890;51.950;7.668;2022-10-24T14:14:50;4.63;;;2.10;;
5730;SDS011;2890;51.950;7.668;2022-10-24T14:17:18;7.75;;;1.92;;
5730;SDS011;2890;51.950;7.668;2022-10-24T14:19:50;6.95;;;2.78;;
5730;SDS011;2890;51.950;7.668;2022-10-24T14:22:19;5.93;;;2.63;;
5730;SDS011;2890;51.950;7.668;2022-10-24T14:24:48;7.20;;;2.13;;
5730;SDS011;2890;51.950;7.668;2022-10-24T14:27:16;6.25;;;1.88;;
5730;SDS011;2890;51.950;7.668;2022-10-24T14:29:51;6.93;;;2.40;;
5730;SDS011;2890;51.950;7.668;2022-10-24T14:32:18;10.45;;;2.60;;
5730;SDS011;2890;51.950;7.668;2022-10-24T14:34:46;5.72;;;2.38;;
5730;SDS011;2890;51.950;7.668;2022-10-24T14:37:14;9.63;;;2.72;;
5730;SDS011;2890;51.950;7.668;2022-10-24T14:39:42;7.38;;;2.58;;
5730;SDS011;2890;51.950;7.668;2022-10-24T14:42:12;7.55;;;2.67;;
5730;SDS011;2890;51.950;7.668;2022-10-24T14:44:40;6.07;;;2.47;;
5730;SDS011;2890;51.950;7.668;2022-10-24T14:47:17;11.45;;;2.83;;
5730;SDS011;2890;51.950;7.668;2022-10-24T14:49:46;8.02;;;2.50;;
5730;SDS011;2890;51.950;7.668;2022-10-24T14:52:15;7.68;;;2.60;;
5730;SDS011;2890;51.950;7.668;2022-10-24T14:54:43;5.45;;;2.10;;
5730;SDS011;2890;51.950;7.668;2022-10-24T14:57:18;6.35;;;2.53;;
5730;SDS011;2890;51.950;7.668;2022-10-24T14:59:46;7.82;;;2.40;;
5730;SDS011;2890;51.950;7.668;2022-10-24T15:02:17;5.32;;;2.45;;
5730;SDS011;2890;51.950;7.668;2022-10-24T15:04:45;9.23;;;2.40;;
5730;SDS011;2890;51.950;7.668;2022-10-24T15:07:14;7.63;;;2.40;;
5730;SDS011;2890;51.950;7.668;2022-10-24T15:09:55;5.13;;;2.33;;
5730;SDS011;2890;51.950;7.668;2022-10-24T15:12:26;8.68;;;2.53;;
5730;SDS011;2890;51.950;7.668;2022-10-24T15:14:53;7.43;;;2.78;;
5730;SDS011;2890;51.950;7.668;2022-10-24T15:17:28;6.85;;;2.38;;
5730;SDS011;2890;51.950;7.668;2022-10-24T15:19:55;4.90;;;1.88;;
5730;SDS011;2890;51.950;7.668;2022-10-24T15:22:24;6.15;;;2.20;;
5730;SDS011;2890;51.950;7.668;2022-10-24T15:24:52;7.60;;;2.80;;
5730;SDS011;2890;51.950;7.668;2022-10-24T15:27:23;8.93;;;2.75;;
5730;SDS011;2890;51.950;7.668;2022-10-24T15:29:52;6.80;;;2.42;;
5730;SDS011;2890;51.950;7.668;2022-10-24T15:32:19;7.43;;;2.30;;
5730;SDS011;2890;51.950;7.668;2022-10-24T15:34:46;6.47;;;2.90;;
5730;SDS011;2890;51.950;7.668;2022-10-24T15:37:14;5.82;;;2.65;;
5730;SDS011;2890;51.950;7.668;2022-10-24T15:39:42;8.88;;;2.75;;
5730;SDS011;2890;51.950;7.668;2022-10-24T15:42:10;7.78;;;2.90;;
5730;SDS011;2890;51.950;7.668;2022-10-24T15:44:37;5.30;;;2.58;;